sensor_id;sensor_type;location;lat;lon;timestamp;P1;durP1;ratioP1;P2;durP2;ratioP2
26080;SDS011;13991;51.174;4.438;2024-02-26T00:01:39;8.50;;;1.47;;
26080;SDS011;13991;51.174;4.438;2024-02-26T00:04:05;8.73;;;1.40;;
26080;SDS011;13991;51.174;4.438;2024-02-26T00:06:31;4.03;;;1.50;;
26080;SDS011;13991;51.174;4.438;2024-02-26T00:08:57;4.20;;;1.73;;
26080;SDS011;13991;51.174;4.438;2024-02-26T00:11:23;6.47;;;1.50;;
26080;SDS011;13991;51.174;4.438;2024-02-26T00:13:48;3.40;;;1.00;;
26080;SDS011;13991;51.174;4.438;2024-02-26T00:16:14;3.43;;;1.20;;
26080;SDS011;13991;51.174;4.438;2024-02-26T00:18:40;4.17;;;1.30;;
26080;SDS011;13991;51.174;4.438;2024-02-26T00:21:05;7.27;;;1.30;;
26080;SDS011;13991;51.174;4.438;2024-02-26T00:23:31;2.73;;;1.57;;
26080;SDS011;13991;51.174;4.438;2024-02-26T00:25:57;7.27;;;1.20;;
26080;SDS011;13991;51.174;4.438;2024-02-26T00:28:23;3.63;;;1.20;;
26080;SDS011;13991;51.174;4.438;2024-02-26T00:30:49;3.93;;;1.23;;
26080;SDS011;13991;51.174;4.438;2024-02-26T00:33:20;5.03;;;1.13;;
26080;SDS011;13991;51.174;4.438;2024-02-26T00:35:46;5.73;;;1.60;;
26080;SDS011;13991;51.174;4.438;2024-02-26T00:38:12;3.40;;;1.40;;
26080;SDS011;13991;51.174;4.438;2024-02-26T00:40:38;11.30;;;1.57;;
26080;SDS011;13991;51.174;4.438;2024-02-26T00:43:03;2.77;;;1.10;;
26080;SDS011;13991;51.174;4.438;2024-02-26T00:45:29;4.80;;;1.13;;
26080;SDS011;13991;51.174;4.438;2024-02-26T00:47:57;4.77;;;1.10;;
26080;SDS011;13991;51.174;4.438;2024-02-26T00:50:23;4.73;;;1.80;;
26080;SDS011;13991;51.174;4.438;2024-02-26T00:52:48;1.93;;;1.10;;
26080;SDS011;13991;51.174;4.438;2024-02-26T00:55:14;6.50;;;1.17;;
26080;SDS011;13991;51.174;4.438;2024-02-26T00:57:40;4.17;;;1.10;;
26080;SDS011;13991;51.174;4.438;2024-02-26T01:00:06;2.80;;;1.27;;
26080;SDS011;13991;51.174;4.438;2024-02-26T01:02:34;6.90;;;1.37;;
26080;SDS011;13991;51.174;4.438;2024-02-26T01:04:59;3.83;;;1.67;;
26080;SDS011;13991;51.174;4.438;2024-02-26T01:07:25;7.67;;;1.30;;
26080;SDS011;13991;51.174;4.438;2024-02-26T01:09:51;2.47;;;0.90;;
26080;SDS011;13991;51.174;4.438;2024-02-26T01:12:16;2.50;;;1.40;;
26080;SDS011;13991;51.174;4.438;2024-02-26T01:14:42;9.77;;;1.10;;
26080;SDS011;13991;51.174;4.438;2024-02-26T01:17:08;2.97;;;1.27;;
26080;SDS011;13991;51.174;4.438;2024-02-26T01:19:33;6.40;;;1.70;;
26080;SDS011;13991;51.174;4.438;2024-02-26T01:21:59;1.43;;;1.10;;
26080;SDS011;13991;51.174;4.438;2024-02-26T01:24:25;2.67;;;1.20;;
26080;SDS011;13991;51.174;4.438;2024-02-26T01:26:51;3.57;;;1.20;;
26080;SDS011;13991;51.174;4.438;2024-02-26T01:29:16;3.77;;;0.90;;
26080;SDS011;13991;51.174;4.438;2024-02-26T01:31:42;1.67;;;0.90;;
26080;SDS011;13991;51.174;4.438;2024-02-26T01:34:07;7.57;;;1.37;;
26080;SDS011;13991;51.174;4.438;2024-02-26T01:36:33;1.77;;;0.97;;
26080;SDS011;13991;51.174;4.438;2024-02-26T01:38:59;3.27;;;1.40;;
26080;SDS011;13991;51.174;4.438;2024-02-26T01:41:25;4.03;;;0.93;;
26080;SDS011;13991;51.174;4.438;2024-02-26T01:43:50;4.47;;;1.43;;
26080;SDS011;13991;51.174;4.438;2024-02-26T01:46:16;4.90;;;1.20;;
26080;SDS011;13991;51.174;4.438;2024-02-26T01:48:43;3.23;;;1.40;;
26080;SDS011;13991;51.174;4.438;2024-02-26T01:51:12;2.67;;;1.43;;
26080;SDS011;13991;51.174;4.438;2024-02-26T01:53:39;5.50;;;1.67;;
26080;SDS011;13991;51.174;4.438;2024-02-26T01:56:05;4.83;;;1.40;;
26080;SDS011;13991;51.174;4.438;2024-02-26T01:58:32;5.03;;;1.37;;
26080;SDS011;13991;51.174;4.438;2024-02-26T02:00:59;6.83;;;2.13;;
26080;SDS011;13991;51.174;4.438;2024-02-26T02:03:26;3.23;;;1.37;;
26080;SDS011;13991;51.174;4.438;2024-02-26T02:05:52;7.00;;;1.20;;
26080;SDS011;13991;51.174;4.438;2024-02-26T02:08:18;5.43;;;1.20;;
26080;SDS011;13991;51.174;4.438;2024-02-26T02:10:44;1.30;;;1.13;;
26080;SDS011;13991;51.174;4.438;2024-02-26T02:13:12;4.50;;;1.30;;
26080;SDS011;13991;51.174;4.438;2024-02-26T02:15:38;2.37;;;0.87;;
26080;SDS011;13991;51.174;4.438;2024-02-26T02:18:05;4.87;;;1.10;;
26080;SDS011;13991;51.174;4.438;2024-02-26T02:20:34;2.07;;;0.90;;
26080;SDS011;13991;51.174;4.438;2024-02-26T02:23:00;2.60;;;1.53;;
26080;SDS011;13991;51.174;4.438;2024-02-26T02:25:25;2.63;;;0.93;;
26080;SDS011;13991;51.174;4.438;2024-02-26T02:27:52;1.90;;;1.00;;
26080;SDS011;13991;51.174;4.438;2024-02-26T02:30:19;6.80;;;1.40;;
26080;SDS011;13991;51.174;4.438;2024-02-26T02:32:46;2.20;;;1.10;;
26080;SDS011;13991;51.174;4.438;2024-02-26T02:35:12;2.57;;;1.43;;
26080;SDS011;13991;51.174;4.438;2024-02-26T02:37:38;4.20;;;1.13;;
26080;SDS011;13991;51.174;4.438;2024-02-26T02:40:03;5.07;;;1.57;;
26080;SDS011;13991;51.174;4.438;2024-02-26T02:42:30;5.00;;;1.20;;
26080;SDS011;13991;51.174;4.438;2024-02-26T02:44:56;2.47;;;1.60;;
26080;SDS011;13991;51.174;4.438;2024-02-26T02:47:21;6.03;;;1.93;;
26080;SDS011;13991;51.174;4.438;2024-02-26T02:49:47;4.60;;;1.50;;
26080;SDS011;13991;51.174;4.438;2024-02-26T02:52:13;2.43;;;1.50;;
26080;SDS011;13991;51.174;4.438;2024-02-26T02:54:38;2.60;;;1.57;;
26080;SDS011;13991;51.174;4.438;2024-02-26T02:57:12;5.07;;;1.80;;
26080;SDS011;13991;51.174;4.438;2024-02-26T02:59:37;4.23;;;1.70;;
26080;SDS011;13991;51.174;4.438;2024-02-26T03:02:04;5.23;;;2.57;;
26080;SDS011;13991;51.174;4.438;2024-02-26T03:04:32;4.17;;;2.00;;
26080;SDS011;13991;51.174;4.438;2024-02-26T03:06:58;3.30;;;1.77;;
26080;SDS011;13991;51.174;4.438;2024-02-26T03:09:23;10.57;;;2.87;;
26080;SDS011;13991;51.174;4.438;2024-02-26T03:11:49;4.83;;;2.03;;
26080;SDS011;13991;51.174;4.438;2024-02-26T03:14:15;4.50;;;2.33;;
26080;SDS011;13991;51.174;4.438;2024-02-26T03:16:41;6.53;;;1.97;;
26080;SDS011;13991;51.174;4.438;2024-02-26T03:19:06;5.27;;;2.70;;
26080;SDS011;13991;51.174;4.438;2024-02-26T03:21:33;5.00;;;2.80;;
26080;SDS011;13991;51.174;4.438;2024-02-26T03:23:58;5.53;;;2.70;;
26080;SDS011;13991;51.174;4.438;2024-02-26T03:26:24;5.53;;;2.93;;
26080;SDS011;13991;51.174;4.438;2024-02-26T03:28:50;11.53;;;3.60;;
26080;SDS011;13991;51.174;4.438;2024-02-26T03:31:15;5.07;;;3.50;;
26080;SDS011;13991;51.174;4.438;2024-02-26T03:33:41;11.77;;;3.53;;
26080;SDS011;13991;51.174;4.438;2024-02-26T03:36:07;9.87;;;3.37;;
26080;SDS011;13991;51.174;4.438;2024-02-26T03:38:32;7.93;;;3.93;;
26080;SDS011;13991;51.174;4.438;2024-02-26T03:40:58;12.03;;;4.67;;
26080;SDS011;13991;51.174;4.438;2024-02-26T03:43:24;10.47;;;4.63;;
26080;SDS011;13991;51.174;4.438;2024-02-26T03:45:50;9.40;;;4.03;;
26080;SDS011;13991;51.174;4.438;2024-02-26T03:48:15;15.47;;;4.80;;
26080;SDS011;13991;51.174;4.438;2024-02-26T03:50:41;10.47;;;4.10;;
26080;SDS011;13991;51.174;4.438;2024-02-26T03:53:06;8.90;;;4.47;;
26080;SDS011;13991;51.174;4.438;2024-02-26T03:55:34;9.73;;;4.70;;
26080;SDS011;13991;51.174;4.438;2024-02-26T03:58:00;11.47;;;4.47;;
26080;SDS011;13991;51.174;4.438;2024-02-26T04:00:25;8.60;;;4.10;;
26080;SDS011;13991;51.174;4.438;2024-02-26T04:02:54;9.47;;;4.30;;
26080;SDS011;13991;51.174;4.438;2024-02-26T04:05:19;9.23;;;4.33;;
26080;SDS011;13991;51.174;4.438;2024-02-26T04:07:45;10.47;;;3.43;;
26080;SDS011;13991;51.174;4.438;2024-02-26T04:10:12;7.23;;;4.20;;
26080;SDS011;13991;51.174;4.438;2024-02-26T04:12:38;5.30;;;3.67;;
26080;SDS011;13991;51.174;4.438;2024-02-26T04:15:09;8.17;;;4.23;;
26080;SDS011;13991;51.174;4.438;2024-02-26T04:17:36;7.67;;;3.57;;
26080;SDS011;13991;51.174;4.438;2024-02-26T04:20:04;5.23;;;3.40;;
26080;SDS011;13991;51.174;4.438;2024-02-26T04:22:32;9.10;;;4.27;;
26080;SDS011;13991;51.174;4.438;2024-02-26T04:24:58;6.37;;;3.43;;
26080;SDS011;13991;51.174;4.438;2024-02-26T04:27:24;7.80;;;3.07;;
26080;SDS011;13991;51.174;4.438;2024-02-26T04:29:49;7.87;;;3.43;;
26080;SDS011;13991;51.174;4.438;2024-02-26T04:32:18;8.23;;;3.53;;
26080;SDS011;13991;51.174;4.438;2024-02-26T04:34:44;7.67;;;3.30;;
26080;SDS011;13991;51.174;4.438;2024-02-26T04:37:09;5.43;;;2.90;;
26080;SDS011;13991;51.174;4.438;2024-02-26T04:39:35;7.77;;;3.17;;
26080;SDS011;13991;51.174;4.438;2024-02-26T04:42:01;6.13;;;3.00;;
26080;SDS011;13991;51.174;4.438;2024-02-26T04:44:28;3.70;;;2.90;;
26080;SDS011;13991;51.174;4.438;2024-02-26T04:46:55;8.33;;;3.23;;
26080;SDS011;13991;51.174;4.438;2024-02-26T04:49:21;8.10;;;2.97;;
26080;SDS011;13991;51.174;4.438;2024-02-26T04:51:46;5.13;;;2.63;;
26080;SDS011;13991;51.174;4.438;2024-02-26T04:54:13;7.03;;;3.20;;
26080;SDS011;13991;51.174;4.438;2024-02-26T04:56:39;5.20;;;2.30;;
26080;SDS011;13991;51.174;4.438;2024-02-26T04:59:04;4.43;;;2.60;;
26080;SDS011;13991;51.174;4.438;2024-02-26T05:01:31;6.97;;;2.97;;
26080;SDS011;13991;51.174;4.438;2024-02-26T05:03:59;10.70;;;2.63;;
26080;SDS011;13991;51.174;4.438;2024-02-26T05:06:24;5.23;;;2.80;;
26080;SDS011;13991;51.174;4.438;2024-02-26T05:08:50;4.60;;;2.77;;
26080;SDS011;13991;51.174;4.438;2024-02-26T05:11:16;5.43;;;2.73;;
26080;SDS011;13991;51.174;4.438;2024-02-26T05:13:43;5.67;;;2.70;;
26080;SDS011;13991;51.174;4.438;2024-02-26T05:16:10;4.37;;;2.80;;
26080;SDS011;13991;51.174;4.438;2024-02-26T05:18:36;5.73;;;2.87;;
26080;SDS011;13991;51.174;4.438;2024-02-26T05:21:01;4.60;;;2.70;;
26080;SDS011;13991;51.174;4.438;2024-02-26T05:23:28;6.23;;;2.73;;
26080;SDS011;13991;51.174;4.438;2024-02-26T05:25:54;6.77;;;2.50;;
26080;SDS011;13991;51.174;4.438;2024-02-26T05:28:20;3.97;;;2.17;;
26080;SDS011;13991;51.174;4.438;2024-02-26T05:30:46;13.57;;;3.40;;
26080;SDS011;13991;51.174;4.438;2024-02-26T05:33:12;4.27;;;2.73;;
26080;SDS011;13991;51.174;4.438;2024-02-26T05:35:37;5.67;;;2.93;;
26080;SDS011;13991;51.174;4.438;2024-02-26T05:38:05;5.87;;;2.30;;
26080;SDS011;13991;51.174;4.438;2024-02-26T05:40:31;4.90;;;2.80;;
26080;SDS011;13991;51.174;4.438;2024-02-26T05:42:56;5.53;;;2.60;;
26080;SDS011;13991;51.174;4.438;2024-02-26T05:45:22;6.00;;;2.93;;
26080;SDS011;13991;51.174;4.438;2024-02-26T05:47:47;5.93;;;2.70;;
26080;SDS011;13991;51.174;4.438;2024-02-26T05:50:15;6.03;;;2.50;;
26080;SDS011;13991;51.174;4.438;2024-02-26T05:52:42;3.60;;;2.53;;
26080;SDS011;13991;51.174;4.438;2024-02-26T05:55:08;6.10;;;2.43;;
26080;SDS011;13991;51.174;4.438;2024-02-26T05:57:34;8.70;;;2.63;;
26080;SDS011;13991;51.174;4.438;2024-02-26T06:00:00;3.77;;;2.60;;
26080;SDS011;13991;51.174;4.438;2024-02-26T06:02:31;3.23;;;2.20;;
26080;SDS011;13991;51.174;4.438;2024-02-26T06:04:57;5.37;;;2.40;;
26080;SDS011;13991;51.174;4.438;2024-02-26T06:07:23;6.43;;;2.40;;
26080;SDS011;13991;51.174;4.438;2024-02-26T06:09:50;4.00;;;2.97;;
26080;SDS011;13991;51.174;4.438;2024-02-26T06:12:16;7.83;;;2.90;;
26080;SDS011;13991;51.174;4.438;2024-02-26T06:14:42;3.70;;;2.03;;
26080;SDS011;13991;51.174;4.438;2024-02-26T06:17:08;4.57;;;2.30;;
26080;SDS011;13991;51.174;4.438;2024-02-26T06:19:34;8.90;;;2.57;;
26080;SDS011;13991;51.174;4.438;2024-02-26T06:21:59;3.60;;;2.20;;
26080;SDS011;13991;51.174;4.438;2024-02-26T06:24:25;6.07;;;2.60;;
26080;SDS011;13991;51.174;4.438;2024-02-26T06:26:50;4.17;;;2.50;;
26080;SDS011;13991;51.174;4.438;2024-02-26T06:29:16;4.47;;;2.83;;
26080;SDS011;13991;51.174;4.438;2024-02-26T06:31:42;4.50;;;2.77;;
26080;SDS011;13991;51.174;4.438;2024-02-26T06:34:08;2.50;;;2.30;;
26080;SDS011;13991;51.174;4.438;2024-02-26T06:36:34;4.50;;;3.10;;
26080;SDS011;13991;51.174;4.438;2024-02-26T06:39:00;3.90;;;2.83;;
26080;SDS011;13991;51.174;4.438;2024-02-26T06:41:26;6.63;;;2.63;;
26080;SDS011;13991;51.174;4.438;2024-02-26T06:43:56;4.23;;;2.90;;
26080;SDS011;13991;51.174;4.438;2024-02-26T06:46:24;4.80;;;3.17;;
26080;SDS011;13991;51.174;4.438;2024-02-26T06:48:51;5.80;;;2.90;;
26080;SDS011;13991;51.174;4.438;2024-02-26T06:51:16;6.50;;;3.65;;
26080;SDS011;13991;51.174;4.438;2024-02-26T06:53:42;5.27;;;3.07;;
26080;SDS011;13991;51.174;4.438;2024-02-26T06:56:08;3.37;;;2.80;;
26080;SDS011;13991;51.174;4.438;2024-02-26T06:58:43;5.77;;;2.53;;
26080;SDS011;13991;51.174;4.438;2024-02-26T07:01:09;7.07;;;3.53;;
26080;SDS011;13991;51.174;4.438;2024-02-26T07:03:37;8.57;;;4.70;;
26080;SDS011;13991;51.174;4.438;2024-02-26T07:06:02;5.33;;;3.23;;
26080;SDS011;13991;51.174;4.438;2024-02-26T07:08:29;11.67;;;4.13;;
26080;SDS011;13991;51.174;4.438;2024-02-26T07:10:54;6.37;;;3.17;;
26080;SDS011;13991;51.174;4.438;2024-02-26T07:13:20;5.60;;;3.10;;
26080;SDS011;13991;51.174;4.438;2024-02-26T07:15:46;5.83;;;2.93;;
26080;SDS011;13991;51.174;4.438;2024-02-26T07:18:11;6.57;;;3.17;;
26080;SDS011;13991;51.174;4.438;2024-02-26T07:20:37;12.73;;;2.90;;
26080;SDS011;13991;51.174;4.438;2024-02-26T07:23:03;5.83;;;3.03;;
26080;SDS011;13991;51.174;4.438;2024-02-26T07:25:28;7.33;;;3.20;;
26080;SDS011;13991;51.174;4.438;2024-02-26T07:27:54;7.17;;;2.67;;
26080;SDS011;13991;51.174;4.438;2024-02-26T07:30:20;4.90;;;3.13;;
26080;SDS011;13991;51.174;4.438;2024-02-26T07:32:45;5.77;;;3.17;;
26080;SDS011;13991;51.174;4.438;2024-02-26T07:35:11;6.23;;;3.37;;
26080;SDS011;13991;51.174;4.438;2024-02-26T07:37:37;8.00;;;3.60;;
26080;SDS011;13991;51.174;4.438;2024-02-26T07:40:03;7.50;;;3.47;;
26080;SDS011;13991;51.174;4.438;2024-02-26T07:42:30;10.43;;;3.30;;
26080;SDS011;13991;51.174;4.438;2024-02-26T07:44:56;6.27;;;3.53;;
26080;SDS011;13991;51.174;4.438;2024-02-26T07:47:22;5.23;;;3.17;;
26080;SDS011;13991;51.174;4.438;2024-02-26T07:49:48;5.17;;;3.20;;
26080;SDS011;13991;51.174;4.438;2024-02-26T07:52:13;4.50;;;3.20;;
26080;SDS011;13991;51.174;4.438;2024-02-26T07:54:39;9.73;;;3.77;;
26080;SDS011;13991;51.174;4.438;2024-02-26T07:57:05;6.80;;;3.73;;
26080;SDS011;13991;51.174;4.438;2024-02-26T07:59:31;9.00;;;4.70;;
26080;SDS011;13991;51.174;4.438;2024-02-26T08:01:57;6.77;;;3.67;;
26080;SDS011;13991;51.174;4.438;2024-02-26T08:04:22;10.93;;;3.87;;
26080;SDS011;13991;51.174;4.438;2024-02-26T08:06:48;7.27;;;3.90;;
26080;SDS011;13991;51.174;4.438;2024-02-26T08:09:14;6.63;;;3.20;;
26080;SDS011;13991;51.174;4.438;2024-02-26T08:11:40;4.83;;;3.37;;
26080;SDS011;13991;51.174;4.438;2024-02-26T08:14:05;7.50;;;3.30;;
26080;SDS011;13991;51.174;4.438;2024-02-26T08:16:31;9.87;;;3.60;;
26080;SDS011;13991;51.174;4.438;2024-02-26T08:18:57;6.40;;;3.57;;
26080;SDS011;13991;51.174;4.438;2024-02-26T08:21:22;7.90;;;3.70;;
26080;SDS011;13991;51.174;4.438;2024-02-26T08:23:48;5.80;;;3.70;;
26080;SDS011;13991;51.174;4.438;2024-02-26T08:26:14;7.40;;;3.47;;
26080;SDS011;13991;51.174;4.438;2024-02-26T08:28:39;8.83;;;3.80;;
26080;SDS011;13991;51.174;4.438;2024-02-26T08:31:05;9.97;;;4.47;;
26080;SDS011;13991;51.174;4.438;2024-02-26T08:33:32;10.63;;;4.13;;
26080;SDS011;13991;51.174;4.438;2024-02-26T08:36:02;6.20;;;3.43;;
26080;SDS011;13991;51.174;4.438;2024-02-26T08:38:30;6.53;;;3.10;;
26080;SDS011;13991;51.174;4.438;2024-02-26T08:40:55;6.83;;;3.67;;
26080;SDS011;13991;51.174;4.438;2024-02-26T08:43:21;6.17;;;4.20;;
26080;SDS011;13991;51.174;4.438;2024-02-26T08:45:46;6.33;;;4.00;;
26080;SDS011;13991;51.174;4.438;2024-02-26T08:48:12;6.10;;;3.63;;
26080;SDS011;13991;51.174;4.438;2024-02-26T08:50:38;8.00;;;3.23;;
26080;SDS011;13991;51.174;4.438;2024-02-26T08:53:03;4.73;;;3.03;;
26080;SDS011;13991;51.174;4.438;2024-02-26T08:55:30;7.47;;;3.40;;
26080;SDS011;13991;51.174;4.438;2024-02-26T08:57:56;5.03;;;2.87;;
26080;SDS011;13991;51.174;4.438;2024-02-26T09:00:22;5.53;;;3.13;;
26080;SDS011;13991;51.174;4.438;2024-02-26T09:02:47;10.93;;;3.70;;
26080;SDS011;13991;51.174;4.438;2024-02-26T09:05:14;6.90;;;3.60;;
26080;SDS011;13991;51.174;4.438;2024-02-26T09:07:40;6.23;;;3.07;;
26080;SDS011;13991;51.174;4.438;2024-02-26T09:10:05;5.53;;;3.00;;
26080;SDS011;13991;51.174;4.438;2024-02-26T09:12:35;5.73;;;3.63;;
26080;SDS011;13991;51.174;4.438;2024-02-26T09:15:05;6.87;;;3.27;;
26080;SDS011;13991;51.174;4.438;2024-02-26T09:17:31;6.30;;;3.47;;
26080;SDS011;13991;51.174;4.438;2024-02-26T09:19:57;5.23;;;3.60;;
26080;SDS011;13991;51.174;4.438;2024-02-26T09:22:22;5.47;;;3.43;;
26080;SDS011;13991;51.174;4.438;2024-02-26T09:24:48;5.00;;;2.93;;
26080;SDS011;13991;51.174;4.438;2024-02-26T09:27:16;5.30;;;2.93;;
26080;SDS011;13991;51.174;4.438;2024-02-26T09:29:42;4.70;;;2.87;;
26080;SDS011;13991;51.174;4.438;2024-02-26T09:32:08;9.80;;;3.60;;
26080;SDS011;13991;51.174;4.438;2024-02-26T09:34:33;5.67;;;2.77;;
26080;SDS011;13991;51.174;4.438;2024-02-26T09:36:59;5.97;;;3.20;;
26080;SDS011;13991;51.174;4.438;2024-02-26T09:39:25;5.33;;;3.13;;
26080;SDS011;13991;51.174;4.438;2024-02-26T09:41:52;5.07;;;3.57;;
26080;SDS011;13991;51.174;4.438;2024-02-26T09:44:19;5.27;;;3.03;;
26080;SDS011;13991;51.174;4.438;2024-02-26T09:46:48;8.47;;;3.93;;
26080;SDS011;13991;51.174;4.438;2024-02-26T09:49:16;5.37;;;3.17;;
26080;SDS011;13991;51.174;4.438;2024-02-26T09:51:44;6.27;;;3.63;;
26080;SDS011;13991;51.174;4.438;2024-02-26T09:54:12;7.20;;;3.90;;
26080;SDS011;13991;51.174;4.438;2024-02-26T09:56:39;5.53;;;3.63;;
26080;SDS011;13991;51.174;4.438;2024-02-26T09:59:13;8.97;;;3.03;;
26080;SDS011;13991;51.174;4.438;2024-02-26T10:01:42;4.83;;;3.10;;
26080;SDS011;13991;51.174;4.438;2024-02-26T10:04:09;4.83;;;3.37;;
26080;SDS011;13991;51.174;4.438;2024-02-26T10:06:36;6.90;;;3.80;;
26080;SDS011;13991;51.174;4.438;2024-02-26T10:09:03;4.07;;;3.00;;
26080;SDS011;13991;51.174;4.438;2024-02-26T10:11:32;5.10;;;3.30;;
26080;SDS011;13991;51.174;4.438;2024-02-26T10:13:57;9.77;;;3.63;;
26080;SDS011;13991;51.174;4.438;2024-02-26T10:16:24;5.90;;;3.90;;
26080;SDS011;13991;51.174;4.438;2024-02-26T10:18:51;8.00;;;3.50;;
26080;SDS011;13991;51.174;4.438;2024-02-26T10:21:19;6.20;;;3.33;;
26080;SDS011;13991;51.174;4.438;2024-02-26T10:23:45;6.33;;;3.67;;
26080;SDS011;13991;51.174;4.438;2024-02-26T10:26:12;5.33;;;3.17;;
26080;SDS011;13991;51.174;4.438;2024-02-26T10:28:39;6.70;;;3.77;;
26080;SDS011;13991;51.174;4.438;2024-02-26T10:31:08;5.33;;;3.53;;
26080;SDS011;13991;51.174;4.438;2024-02-26T10:33:34;6.47;;;4.17;;
26080;SDS011;13991;51.174;4.438;2024-02-26T10:36:01;8.63;;;4.47;;
26080;SDS011;13991;51.174;4.438;2024-02-26T10:38:31;8.90;;;4.63;;
26080;SDS011;13991;51.174;4.438;2024-02-26T10:40:57;10.27;;;4.73;;
26080;SDS011;13991;51.174;4.438;2024-02-26T10:43:24;10.77;;;4.50;;
26080;SDS011;13991;51.174;4.438;2024-02-26T10:45:50;9.17;;;5.13;;
26080;SDS011;13991;51.174;4.438;2024-02-26T10:48:16;7.63;;;4.10;;
26080;SDS011;13991;51.174;4.438;2024-02-26T10:50:43;11.13;;;4.83;;
26080;SDS011;13991;51.174;4.438;2024-02-26T10:53:13;10.37;;;4.07;;
26080;SDS011;13991;51.174;4.438;2024-02-26T10:55:48;8.13;;;4.40;;
26080;SDS011;13991;51.174;4.438;2024-02-26T10:58:19;11.80;;;3.73;;
26080;SDS011;13991;51.174;4.438;2024-02-26T11:00:46;7.10;;;4.40;;
26080;SDS011;13991;51.174;4.438;2024-02-26T11:03:14;9.83;;;4.87;;
26080;SDS011;13991;51.174;4.438;2024-02-26T11:05:46;7.53;;;4.53;;
26080;SDS011;13991;51.174;4.438;2024-02-26T11:08:13;7.73;;;4.27;;
26080;SDS011;13991;51.174;4.438;2024-02-26T11:10:39;11.80;;;5.30;;
26080;SDS011;13991;51.174;4.438;2024-02-26T11:13:07;6.87;;;3.63;;
26080;SDS011;13991;51.174;4.438;2024-02-26T11:15:37;7.20;;;4.47;;
26080;SDS011;13991;51.174;4.438;2024-02-26T11:18:04;12.60;;;5.07;;
26080;SDS011;13991;51.174;4.438;2024-02-26T11:20:30;11.27;;;4.70;;
26080;SDS011;13991;51.174;4.438;2024-02-26T11:22:58;10.20;;;4.73;;
26080;SDS011;13991;51.174;4.438;2024-02-26T11:25:24;10.33;;;5.37;;
26080;SDS011;13991;51.174;4.438;2024-02-26T11:27:58;9.20;;;4.57;;
26080;SDS011;13991;51.174;4.438;2024-02-26T11:30:26;8.20;;;4.67;;
26080;SDS011;13991;51.174;4.438;2024-02-26T11:32:56;9.67;;;4.87;;
26080;SDS011;13991;51.174;4.438;2024-02-26T11:35:22;9.97;;;5.13;;
26080;SDS011;13991;51.174;4.438;2024-02-26T11:37:55;8.97;;;4.40;;
26080;SDS011;13991;51.174;4.438;2024-02-26T11:40:24;8.83;;;4.27;;
26080;SDS011;13991;51.174;4.438;2024-02-26T11:42:51;9.57;;;4.00;;
26080;SDS011;13991;51.174;4.438;2024-02-26T11:48:11;7.60;;;3.70;;
26080;SDS011;13991;51.174;4.438;2024-02-26T11:50:42;9.80;;;4.17;;
26080;SDS011;13991;51.174;4.438;2024-02-26T11:58:46;7.43;;;4.03;;
26080;SDS011;13991;51.174;4.438;2024-02-26T12:04:04;10.33;;;4.50;;
26080;SDS011;13991;51.174;4.438;2024-02-26T12:06:31;9.47;;;4.67;;
26080;SDS011;13991;51.174;4.438;2024-02-26T12:09:05;12.60;;;5.27;;
26080;SDS011;13991;51.174;4.438;2024-02-26T12:11:30;10.73;;;5.10;;
26080;SDS011;13991;51.174;4.438;2024-02-26T12:13:56;11.17;;;4.63;;
26080;SDS011;13991;51.174;4.438;2024-02-26T12:16:38;12.13;;;5.13;;
26080;SDS011;13991;51.174;4.438;2024-02-26T12:19:08;10.10;;;4.17;;
26080;SDS011;13991;51.174;4.438;2024-02-26T12:21:37;17.30;;;5.93;;
26080;SDS011;13991;51.174;4.438;2024-02-26T12:24:10;11.73;;;5.53;;
26080;SDS011;13991;51.174;4.438;2024-02-26T12:26:37;13.27;;;5.83;;
26080;SDS011;13991;51.174;4.438;2024-02-26T12:29:03;14.13;;;5.50;;
26080;SDS011;13991;51.174;4.438;2024-02-26T12:31:28;19.00;;;5.17;;
26080;SDS011;13991;51.174;4.438;2024-02-26T12:33:56;9.23;;;4.43;;
26080;SDS011;13991;51.174;4.438;2024-02-26T12:36:22;10.33;;;5.20;;
26080;SDS011;13991;51.174;4.438;2024-02-26T12:38:48;11.10;;;4.93;;
26080;SDS011;13991;51.174;4.438;2024-02-26T12:41:16;8.43;;;4.53;;
26080;SDS011;13991;51.174;4.438;2024-02-26T12:43:42;13.83;;;5.47;;
26080;SDS011;13991;51.174;4.438;2024-02-26T12:46:08;11.57;;;5.40;;
26080;SDS011;13991;51.174;4.438;2024-02-26T12:48:33;8.57;;;5.13;;
26080;SDS011;13991;51.174;4.438;2024-02-26T12:51:00;12.57;;;6.07;;
26080;SDS011;13991;51.174;4.438;2024-02-26T12:53:30;9.50;;;5.20;;
26080;SDS011;13991;51.174;4.438;2024-02-26T12:55:56;10.10;;;5.23;;
26080;SDS011;13991;51.174;4.438;2024-02-26T12:58:22;12.07;;;5.57;;
26080;SDS011;13991;51.174;4.438;2024-02-26T13:00:53;11.70;;;5.17;;
26080;SDS011;13991;51.174;4.438;2024-02-26T13:03:19;12.30;;;5.60;;
26080;SDS011;13991;51.174;4.438;2024-02-26T13:05:46;11.40;;;5.70;;
26080;SDS011;13991;51.174;4.438;2024-02-26T13:08:19;12.03;;;4.90;;
26080;SDS011;13991;51.174;4.438;2024-02-26T13:10:45;13.13;;;5.83;;
26080;SDS011;13991;51.174;4.438;2024-02-26T13:13:14;10.07;;;5.33;;
26080;SDS011;13991;51.174;4.438;2024-02-26T13:15:41;12.50;;;5.97;;
26080;SDS011;13991;51.174;4.438;2024-02-26T13:18:10;13.30;;;5.50;;
26080;SDS011;13991;51.174;4.438;2024-02-26T13:20:37;10.80;;;5.67;;
26080;SDS011;13991;51.174;4.438;2024-02-26T13:23:06;9.83;;;5.23;;
26080;SDS011;13991;51.174;4.438;2024-02-26T13:25:33;9.17;;;4.77;;
26080;SDS011;13991;51.174;4.438;2024-02-26T13:28:06;7.23;;;4.37;;
26080;SDS011;13991;51.174;4.438;2024-02-26T13:30:34;12.60;;;4.57;;
26080;SDS011;13991;51.174;4.438;2024-02-26T13:33:07;9.73;;;5.47;;
26080;SDS011;13991;51.174;4.438;2024-02-26T13:35:34;12.70;;;5.53;;
26080;SDS011;13991;51.174;4.438;2024-02-26T13:38:00;10.97;;;4.43;;
26080;SDS011;13991;51.174;4.438;2024-02-26T13:40:25;9.37;;;4.67;;
26080;SDS011;13991;51.174;4.438;2024-02-26T13:42:51;11.60;;;5.47;;
26080;SDS011;13991;51.174;4.438;2024-02-26T13:45:17;9.00;;;4.70;;
26080;SDS011;13991;51.174;4.438;2024-02-26T13:47:43;7.63;;;4.27;;
26080;SDS011;13991;51.174;4.438;2024-02-26T13:50:09;6.80;;;4.17;;
26080;SDS011;13991;51.174;4.438;2024-02-26T13:52:35;8.43;;;4.63;;
26080;SDS011;13991;51.174;4.438;2024-02-26T13:55:01;9.03;;;4.60;;
26080;SDS011;13991;51.174;4.438;2024-02-26T13:57:27;11.73;;;4.57;;
26080;SDS011;13991;51.174;4.438;2024-02-26T13:59:53;9.90;;;4.70;;
26080;SDS011;13991;51.174;4.438;2024-02-26T14:02:19;17.77;;;7.83;;
26080;SDS011;13991;51.174;4.438;2024-02-26T14:04:45;9.87;;;4.93;;
26080;SDS011;13991;51.174;4.438;2024-02-26T14:07:12;10.27;;;5.23;;
26080;SDS011;13991;51.174;4.438;2024-02-26T14:09:38;9.93;;;4.80;;
26080;SDS011;13991;51.174;4.438;2024-02-26T14:12:04;9.07;;;4.83;;
26080;SDS011;13991;51.174;4.438;2024-02-26T14:14:30;8.20;;;4.87;;
26080;SDS011;13991;51.174;4.438;2024-02-26T14:16:58;8.57;;;4.57;;
26080;SDS011;13991;51.174;4.438;2024-02-26T14:19:24;10.00;;;4.87;;
26080;SDS011;13991;51.174;4.438;2024-02-26T14:21:51;8.90;;;5.07;;
26080;SDS011;13991;51.174;4.438;2024-02-26T14:24:16;7.90;;;4.10;;
26080;SDS011;13991;51.174;4.438;2024-02-26T14:26:42;7.83;;;4.50;;
26080;SDS011;13991;51.174;4.438;2024-02-26T14:29:07;8.00;;;4.60;;
26080;SDS011;13991;51.174;4.438;2024-02-26T14:31:33;10.13;;;4.43;;
26080;SDS011;13991;51.174;4.438;2024-02-26T14:33:59;17.33;;;4.90;;
26080;SDS011;13991;51.174;4.438;2024-02-26T14:36:25;9.30;;;4.73;;
26080;SDS011;13991;51.174;4.438;2024-02-26T14:38:50;6.70;;;3.90;;
26080;SDS011;13991;51.174;4.438;2024-02-26T14:41:16;8.03;;;3.97;;
26080;SDS011;13991;51.174;4.438;2024-02-26T14:43:42;6.40;;;4.07;;
26080;SDS011;13991;51.174;4.438;2024-02-26T14:46:07;6.47;;;3.10;;
26080;SDS011;13991;51.174;4.438;2024-02-26T14:48:33;6.97;;;3.77;;
26080;SDS011;13991;51.174;4.438;2024-02-26T14:50:59;6.07;;;3.90;;
26080;SDS011;13991;51.174;4.438;2024-02-26T14:53:25;7.10;;;3.67;;